Etusivu
METAR-TAF:

METAR-TAF

Lentoasemat :

Kölnin

Köln, Saksa

Leveyspiiri: 50-52N, Pituuspiiri: 007-10E, korkeus merenpinnasta: 91 m

Tämänhetkinen sää

Tämä raportti tehtiin 39 minuuttia sitten, kello 03.20 UTC
Tuuli 1 kn idästä/koillisesta
Lämpötila -1°C
Kosteus 93%
Ilmanpaine 1026 hPa
Näkyvyys 10 km tai enemmän
Muutamia pilviä 3000 ft:n korkeudessa

METAR: EDDK 190320Z 06001KT 9999 FEW030 M01/M02 Q1026 NOSIG

Aika: 04:59 (03:59 UTC)

Sääennuste

Tämä raportti tehtiin 4 tuntia ja 59 minuuttia sitten, kello 23.00 UTC
Ennuste voimassa 19. päivästä klo 00 UTC - 20. päivään klo 06 UTC
Tuuli 3 kn eri suunnista
Näkyvyys 10 km tai enemmän
Muutamia pilviä 3000 ft:n korkeudessa
Tulossa
19. päivästä klo 09 UTC - 19. päivään klo 12 UTC
Tuuli 5 kn luoteesta
Tulossa
19. päivästä klo 16 UTC - 19. päivään klo 19 UTC
Tuuli 4 kn idästä/kaakosta

TAF: EDDK 182300Z 1900/2006 VRB03KT 9999 FEW030 BECMG 1909/1912 31005KT BECMG 1916/1919 11004KT

Säähavainnot ja -ennusteet yli 4000 lentoasemalta (METAR- ja TAF-raportit).

Käytössä olevat sääasemat on merkitty karttaan keltaisilla ja punaisilla pisteillä.

Aseta hiiri pisteen päälle nähdäksesi sääaseman nimen.

Klikkaa sitten nähdäksesi säähavainnot ja -ennusteet.

Kartan vaihtaminen: klikkaa mustalla rastilla varustettuja vihreitä pisteitä, niin voit zoomata sisään; viivalla varustettua vihreää pistettä, niin voit zoomata ulos tai vihreitä nuolia, niin pääset viereisille kartoille.


METAR-TAF: